createdAt,value
2019-05-02T00:07:34.246Z,0
2019-05-02T00:13:39.200Z,0
2019-05-02T00:20:44.579Z,0
2019-05-02T00:23:00.471Z,0
2019-05-02T00:24:42.833Z,0
2019-05-02T00:25:47.201Z,0
2019-05-02T00:26:44.964Z,0
2019-05-02T00:27:45.533Z,0
2019-05-02T00:29:30.542Z,0
2019-05-02T00:30:34.574Z,0
2019-05-02T00:31:47.388Z,0
2019-05-02T00:32:48.047Z,0
2019-05-02T00:33:48.666Z,0
2019-05-02T00:35:11.009Z,0
2019-05-02T00:38:41.791Z,0
2019-05-02T00:40:31.891Z,0
2019-05-02T00:41:33.201Z,0
2019-05-02T00:53:48.449Z,0
2019-05-02T00:54:47.709Z,0
2019-05-02T00:56:54.055Z,0
2019-05-02T00:58:40.425Z,0
2019-05-02T00:59:42.371Z,0
2019-05-02T01:00:42.555Z,0
2019-05-02T01:01:43.174Z,0
2019-05-02T01:03:01.568Z,0
2019-05-02T01:04:02.129Z,0
2019-05-02T01:05:48.450Z,0
2019-05-02T01:06:50.698Z,0
2019-05-02T01:07:50.654Z,0
2019-05-02T01:08:51.221Z,0
2019-05-02T01:10:36.360Z,0
2019-05-02T01:11:36.936Z,0
2019-05-02T01:12:51.270Z,0
2019-05-02T01:13:55.729Z,0
2019-05-02T01:14:53.445Z,0
2019-05-02T01:15:54.010Z,0
2019-05-02T01:17:38.928Z,0
2019-05-02T01:18:41.361Z,0
2019-05-02T01:21:14.208Z,0
2019-05-02T01:22:15.882Z,0
2019-05-02T01:28:01.758Z,0
2019-05-02T01:29:02.327Z,0
2019-05-02T01:30:05.993Z,0
2019-05-02T01:31:04.456Z,0
2019-05-02T01:32:56.633Z,0
2019-05-02T01:33:57.202Z,0
2019-05-02T01:34:57.772Z,0
2019-05-02T01:36:01.781Z,0
2019-05-02T01:39:29.722Z,0
2019-05-02T01:40:30.293Z,0
2019-05-02T01:41:31.110Z,0
2019-05-02T01:42:39.555Z,0
2019-05-02T01:44:42.873Z,0
2019-05-02T01:49:57.244Z,0
2019-05-02T01:50:55.494Z,0
2019-05-02T01:51:56.116Z,0
2019-05-02T01:52:58.537Z,0
2019-05-02T01:54:45.695Z,0
2019-05-02T01:57:46.578Z,0
2019-05-02T01:59:33.918Z,0
2019-05-02T02:00:33.240Z,0
2019-05-02T02:01:33.816Z,0
2019-05-02T02:04:20.997Z,0
2019-05-02T02:05:20.906Z,0
2019-05-02T02:06:21.476Z,0
2019-05-02T02:07:22.096Z,0
2019-05-02T02:09:08.398Z,0
2019-05-02T02:10:07.667Z,0
2019-05-02T02:11:08.235Z,0
2019-05-02T02:12:09.794Z,0
2019-05-02T02:13:54.815Z,0
2019-05-02T02:14:55.578Z,0
2019-05-02T02:16:00.292Z,0
2019-05-02T02:16:57.607Z,0
2019-05-02T02:18:42.473Z,0
2019-05-02T02:19:43.043Z,0
2019-05-02T02:20:45.174Z,0
2019-05-02T02:21:44.222Z,0
2019-05-02T02:23:29.190Z,0
2019-05-02T02:24:29.760Z,0
2019-05-02T02:25:32.190Z,0
2019-05-02T02:26:31.943Z,0
2019-05-02T02:28:16.860Z,0
2019-05-02T02:29:17.433Z,0
2019-05-02T02:30:24.476Z,0
2019-05-02T02:31:19.613Z,0
2019-05-02T02:33:07.647Z,0
2019-05-02T02:34:05.238Z,0
2019-05-02T02:35:10.061Z,0
2019-05-02T02:36:07.368Z,0
2019-05-02T02:37:55.445Z,0
2019-05-02T02:38:53.948Z,0
2019-05-02T02:39:56.455Z,0
2019-05-02T02:40:56.081Z,0
2019-05-02T02:42:41.051Z,0
2019-05-02T02:43:41.661Z,0
2019-05-02T02:44:42.379Z,0
2019-05-02T02:45:42.999Z,0
2019-05-02T02:47:27.915Z,0
2019-05-02T02:52:26.500Z,0
2019-05-02T03:06:38.305Z,0
2019-05-02T03:07:51.825Z,0
2019-05-02T03:08:53.207Z,0
2019-05-02T03:10:31.565Z,0
2019-05-02T03:11:32.132Z,0
2019-05-02T03:12:36.193Z,0
2019-05-02T03:13:50.453Z,0
2019-05-02T03:15:20.774Z,0
2019-05-02T03:16:19.929Z,0
2019-05-02T03:17:26.564Z,0
2019-05-02T03:18:22.097Z,0
2019-05-02T03:20:07.016Z,0
2019-05-02T03:21:13.129Z,0
2019-05-02T03:22:09.146Z,0
2019-05-02T03:23:15.379Z,0
2019-05-02T03:25:50.794Z,0
2019-05-02T03:26:48.762Z,0
2019-05-02T03:27:46.053Z,0
2019-05-02T03:28:57.649Z,0
2019-05-02T03:30:37.449Z,0
2019-05-02T03:31:34.093Z,0
2019-05-02T03:33:20.465Z,0
2019-05-02T03:34:21.035Z,0
2019-05-02T03:35:40.092Z,0
2019-05-02T03:36:30.398Z,0
2019-05-02T03:38:09.027Z,0
2019-05-02T03:39:14.962Z,0
2019-05-02T03:42:44.003Z,0
2019-05-02T03:43:35.986Z,0
2019-05-02T03:44:36.556Z,0
2019-05-02T03:45:39.843Z,0
2019-05-02T03:47:23.288Z,0
2019-05-02T03:48:25.816Z,0
2019-05-02T03:49:24.514Z,0
2019-05-02T03:50:32.370Z,0
2019-05-02T03:52:09.988Z,0
2019-05-02T03:53:10.556Z,0
2019-05-02T03:54:11.158Z,0
2019-05-02T03:55:11.738Z,0
2019-05-02T03:56:56.604Z,0
2019-05-02T03:57:57.172Z,0
2019-05-02T03:58:58.278Z,0
2019-05-02T03:59:58.966Z,0
2019-05-02T04:01:43.887Z,0
2019-05-02T04:02:44.459Z,0
2019-05-02T04:03:45.081Z,0
2019-05-02T04:04:45.742Z,0
2019-05-02T04:06:30.717Z,0
2019-05-02T04:07:39.722Z,0
2019-05-02T04:08:32.895Z,0
2019-05-02T04:09:39.013Z,0
2019-05-02T04:11:19.374Z,0
2019-05-02T04:12:21.731Z,0
2019-05-02T04:13:21.505Z,0
2019-05-02T04:14:36.898Z,0
2019-05-02T04:16:14.811Z,0
2019-05-02T04:17:08.591Z,0
2019-05-02T04:19:10.723Z,0
2019-05-02T04:24:13.690Z,0
2019-05-02T04:25:09.294Z,0
2019-05-02T04:26:12.875Z,0
2019-05-02T04:27:11.469Z,0
2019-05-02T04:28:56.435Z,0
2019-05-02T04:29:57.053Z,0
2019-05-02T04:30:57.619Z,0
2019-05-02T04:31:58.191Z,0
2019-05-02T04:33:43.107Z,0
2019-05-02T04:34:49.204Z,0
2019-05-02T04:35:45.237Z,0
2019-05-02T04:36:46.907Z,0
2019-05-02T04:38:46.612Z,0
2019-05-02T04:39:33.297Z,0
2019-05-02T04:40:35.070Z,0
2019-05-02T04:41:35.413Z,0
2019-05-02T04:43:20.328Z,0
2019-05-02T04:44:20.896Z,0
2019-05-02T04:45:29.128Z,0
2019-05-02T04:46:30.136Z,0
2019-05-02T04:48:08.988Z,0
2019-05-02T04:49:09.606Z,0
2019-05-02T04:50:18.077Z,0
2019-05-02T04:51:16.352Z,0
2019-05-02T04:52:59.275Z,0
2019-05-02T04:53:59.213Z,0
2019-05-02T04:55:08.023Z,0
2019-05-02T04:56:06.832Z,0
2019-05-02T04:57:50.835Z,0
2019-05-02T04:58:49.520Z,0
2019-05-02T04:59:50.626Z,0
2019-05-02T05:00:58.054Z,0
2019-05-02T05:02:40.016Z,0
2019-05-02T05:03:38.558Z,0
2019-05-02T05:04:46.132Z,0
2019-05-02T05:05:40.691Z,0
2019-05-02T05:07:31.211Z,0
2019-05-02T05:08:31.737Z,0
2019-05-02T05:09:27.972Z,0
2019-05-02T05:10:35.017Z,0
2019-05-02T05:12:14.454Z,0
2019-05-02T05:13:19.851Z,0
2019-05-02T05:14:17.953Z,0
2019-05-02T05:15:33.748Z,0
2019-05-02T05:17:04.112Z,0
2019-05-02T05:18:09.792Z,0
2019-05-02T05:19:07.607Z,0
2019-05-02T05:20:13.704Z,0
2019-05-02T05:21:59.176Z,0
2019-05-02T05:22:55.332Z,0
2019-05-02T05:23:59.587Z,0
2019-05-02T05:24:58.229Z,0
2019-05-02T05:26:43.205Z,0
2019-05-02T05:27:43.772Z,0
2019-05-02T05:28:44.575Z,0
2019-05-02T05:29:46.650Z,0
2019-05-02T05:31:31.156Z,0
2019-05-02T05:32:31.775Z,0
2019-05-02T05:33:32.393Z,0
2019-05-02T05:34:33.015Z,0
2019-05-02T05:36:19.955Z,0
2019-05-02T05:37:19.492Z,0
2019-05-02T05:38:22.972Z,0
2019-05-02T05:39:21.674Z,0
2019-05-02T05:41:08.900Z,0
2019-05-02T05:42:10.646Z,0
2019-05-02T05:43:15.498Z,0
2019-05-02T05:44:11.433Z,0
2019-05-02T05:46:09.096Z,0
2019-05-02T05:46:58.265Z,0
2019-05-02T05:48:01.011Z,0
2019-05-02T05:49:00.380Z,0
2019-05-02T05:50:45.345Z,0
2019-05-02T05:51:47.720Z,0
2019-05-02T05:52:47.527Z,0
2019-05-02T05:53:52.221Z,0
2019-05-02T05:55:34.060Z,0
2019-05-02T05:56:39.671Z,0
2019-05-02T05:57:38.353Z,0
2019-05-02T05:58:39.912Z,0
2019-05-02T06:00:23.716Z,0
2019-05-02T06:01:25.888Z,0
2019-05-02T06:02:28.294Z,0
2019-05-02T06:03:27.859Z,0
2019-05-02T06:05:12.766Z,0
2019-05-02T06:06:14.734Z,0
2019-05-02T06:07:14.890Z,0
2019-05-02T06:08:18.468Z,0
2019-05-02T06:10:02.190Z,0
2019-05-02T06:11:03.144Z,0
2019-05-02T06:12:03.767Z,0
2019-05-02T06:13:05.177Z,0
2019-05-02T06:14:50.297Z,0
2019-05-02T06:16:01.601Z,0
2019-05-02T06:16:53.252Z,0
2019-05-02T06:17:53.900Z,0
2019-05-02T06:19:38.815Z,0
2019-05-02T06:20:39.383Z,0
2019-05-02T06:21:44.826Z,0
2019-05-02T06:22:41.516Z,0
2019-05-02T06:24:26.434Z,0
2019-05-02T06:25:34.224Z,0
2019-05-02T06:26:28.566Z,0
2019-05-02T06:27:30.502Z,0
2019-05-02T06:29:18.840Z,0
2019-05-02T06:30:16.705Z,0
2019-05-02T06:31:17.358Z,0
2019-05-02T06:32:19.283Z,0
2019-05-02T06:34:07.115Z,0
2019-05-02T06:35:05.410Z,0
2019-05-02T06:36:05.984Z,0
2019-05-02T06:37:08.288Z,0
2019-05-02T06:38:52.297Z,0
2019-05-02T06:39:53.113Z,0
2019-05-02T06:40:53.681Z,0
2019-05-02T06:41:57.508Z,0
2019-05-02T06:43:41.070Z,0
2019-05-02T06:44:41.772Z,0
2019-05-02T06:45:42.343Z,0
2019-05-02T06:46:42.912Z,0
2019-05-02T06:48:27.779Z,0
2019-05-02T06:49:28.348Z,0
2019-05-02T06:50:33.335Z,0
2019-05-02T06:51:30.484Z,0
2019-05-02T06:53:15.352Z,0
2019-05-02T06:54:18.054Z,0
2019-05-02T06:55:17.534Z,0
2019-05-02T06:56:18.102Z,0
2019-05-02T06:58:07.737Z,0
2019-05-02T06:59:04.874Z,0
2019-05-02T07:00:06.546Z,0
2019-05-02T07:01:06.053Z,0
2019-05-02T07:02:50.918Z,0
2019-05-02T07:03:51.486Z,0
2019-05-02T07:04:54.829Z,0
2019-05-02T07:05:53.617Z,0
2019-05-02T07:07:38.506Z,0
2019-05-02T07:08:39.175Z,0
2019-05-02T07:09:41.579Z,0
2019-05-02T07:10:44.843Z,0
2019-05-02T07:12:27.473Z,0
2019-05-02T07:13:28.040Z,0
2019-05-02T07:14:28.658Z,0
2019-05-02T07:15:33.570Z,0
2019-05-02T07:17:15.438Z,0
2019-05-02T07:18:16.050Z,0
2019-05-02T07:19:16.825Z,0
2019-05-02T07:20:18.231Z,0
2019-05-02T07:22:04.409Z,0
2019-05-02T07:23:04.660Z,0
2019-05-02T07:24:05.232Z,0
2019-05-02T07:25:06.825Z,0
2019-05-02T07:26:52.079Z,0
2019-05-02T07:27:53.376Z,0
2019-05-02T07:28:53.944Z,0
2019-05-02T07:29:57.645Z,0
2019-05-02T07:31:42.997Z,0
2019-05-02T07:32:41.084Z,8
2019-05-02T07:33:41.704Z,12
2019-05-02T07:34:44.265Z,12
2019-05-02T07:36:31.270Z,12
2019-05-02T07:37:28.851Z,12
2019-05-02T07:38:29.418Z,12
2019-05-02T07:39:30.038Z,12
2019-05-02T07:41:14.955Z,12
2019-05-02T07:42:15.528Z,12
2019-05-02T07:43:21.112Z,12
2019-05-02T07:44:17.713Z,8
2019-05-02T07:46:02.630Z,12
2019-05-02T07:47:04.747Z,12
2019-05-02T07:48:04.814Z,12
2019-05-02T07:49:05.386Z,12
2019-05-02T07:50:50.580Z,12
2019-05-02T07:51:52.268Z,12
2019-05-02T07:52:52.576Z,12
2019-05-02T07:53:55.555Z,12
2019-05-02T07:55:40.854Z,16
2019-05-02T07:56:40.626Z,16
2019-05-02T07:57:41.194Z,16
2019-05-02T07:58:46.922Z,12
2019-05-02T08:00:27.675Z,12
2019-05-02T08:01:28.246Z,12
2019-05-02T08:02:28.858Z,12
2019-05-02T08:03:33.642Z,12
2019-05-02T08:05:21.351Z,12
2019-05-02T08:06:15.997Z,12
2019-05-02T08:07:21.166Z,12
2019-05-02T08:08:17.227Z,12
2019-05-02T08:10:02.147Z,16
2019-05-02T08:11:03.292Z,16
2019-05-02T08:12:03.322Z,16
2019-05-02T08:13:03.896Z,16
2019-05-02T08:14:48.859Z,16
2019-05-02T08:15:50.919Z,16
2019-05-02T08:16:50.994Z,12
2019-05-02T08:17:53.797Z,12
2019-05-02T08:19:41.614Z,12
2019-05-02T08:20:39.139Z,12
2019-05-02T08:21:39.708Z,12
2019-05-02T08:22:44.001Z,12
2019-05-02T08:24:26.194Z,12
2019-05-02T08:25:26.808Z,12
2019-05-02T08:26:27.383Z,12
2019-05-02T08:27:29.275Z,16
2019-05-02T08:29:13.860Z,16
2019-05-02T08:30:14.479Z,16
2019-05-02T08:31:19.145Z,12
2019-05-02T08:32:16.666Z,12
2019-05-02T08:34:05.216Z,16
2019-05-02T08:35:03.149Z,16
2019-05-02T08:36:03.769Z,16
2019-05-02T08:37:04.905Z,16
2019-05-02T08:38:53.552Z,16
2019-05-02T08:39:51.514Z,16
2019-05-02T08:40:52.084Z,16
2019-05-02T08:41:56.344Z,16
2019-05-02T08:43:40.231Z,16
2019-05-02T08:44:50.227Z,16
2019-05-02T08:45:40.839Z,16
2019-05-02T08:46:41.411Z,20
2019-05-02T08:48:26.329Z,20
2019-05-02T08:49:26.897Z,20
2019-05-02T08:50:31.939Z,16
2019-05-02T08:51:29.082Z,16
2019-05-02T08:53:19.112Z,16
2019-05-02T08:54:15.568Z,20
2019-05-02T08:55:16.134Z,20
2019-05-02T08:56:21.333Z,20
2019-05-02T08:58:09.876Z,16
2019-05-02T08:59:04.230Z,20
2019-05-02T09:00:04.800Z,20
2019-05-02T09:01:09.240Z,20
2019-05-02T09:02:51.232Z,16
2019-05-02T09:03:56.707Z,20
2019-05-02T09:04:58.746Z,20
2019-05-02T09:06:05.301Z,20
2019-05-02T09:07:42.677Z,20
2019-05-02T09:08:40.598Z,20
2019-05-02T09:09:41.215Z,20
2019-05-02T09:10:43.397Z,20
2019-05-02T09:12:27.698Z,20
2019-05-02T09:13:29.439Z,20
2019-05-02T09:14:29.832Z,20
2019-05-02T09:15:31.740Z,20
2019-05-02T09:17:16.761Z,24
2019-05-02T09:18:17.335Z,24
2019-05-02T09:19:21.309Z,20
2019-05-02T09:20:20.877Z,20
2019-05-02T09:22:07.589Z,24
2019-05-02T09:23:05.989Z,20
2019-05-02T09:24:08.466Z,24
2019-05-02T09:25:08.133Z,20
2019-05-02T09:26:53.041Z,20
2019-05-02T09:27:53.661Z,20
2019-05-02T09:28:56.330Z,20
2019-05-02T09:29:55.849Z,20
2019-05-02T09:31:42.319Z,20
2019-05-02T09:32:42.332Z,20
2019-05-02T09:33:46.832Z,24
2019-05-02T09:34:44.516Z,20
2019-05-02T09:36:29.436Z,24
2019-05-02T09:37:32.004Z,24
2019-05-02T09:38:32.873Z,24
2019-05-02T09:39:36.554Z,24
2019-05-02T09:41:19.549Z,24
2019-05-02T09:42:21.603Z,20
2019-05-02T09:43:22.870Z,24
2019-05-02T09:44:22.982Z,24
2019-05-02T09:46:14.197Z,24
2019-05-02T09:47:09.516Z,24
2019-05-02T09:48:12.374Z,24
2019-05-02T09:49:16.269Z,24
2019-05-02T09:50:58.278Z,24
2019-05-02T09:52:00.731Z,24
2019-05-02T09:53:01.970Z,24
2019-05-02T09:54:06.254Z,28
2019-05-02T09:55:50.345Z,28
2019-05-02T09:56:48.617Z,24
2019-05-02T09:57:49.188Z,24
2019-05-02T09:58:55.081Z,24
2019-05-02T10:00:36.328Z,24
2019-05-02T10:01:37.082Z,24
2019-05-02T10:02:37.691Z,24
2019-05-02T10:03:38.266Z,24
2019-05-02T10:05:23.230Z,24
2019-05-02T10:06:23.853Z,28
2019-05-02T10:07:24.454Z,28
2019-05-02T10:08:25.037Z,28
2019-05-02T10:10:09.945Z,28
2019-05-02T10:11:11.736Z,28
2019-05-02T10:12:12.289Z,24
2019-05-02T10:13:12.688Z,24
2019-05-02T10:14:57.608Z,28
2019-05-02T10:15:58.229Z,28
2019-05-02T10:17:05.106Z,28
2019-05-02T10:18:08.861Z,28
2019-05-02T10:19:49.236Z,28
2019-05-02T10:20:47.837Z,28
2019-05-02T10:21:52.466Z,32
2019-05-02T10:22:49.973Z,28
2019-05-02T10:24:34.887Z,28
2019-05-02T10:25:41.223Z,28
2019-05-02T10:26:37.120Z,28
2019-05-02T10:27:38.410Z,28
2019-05-02T10:29:28.404Z,32
2019-05-02T10:30:25.277Z,32
2019-05-02T10:31:27.581Z,32
2019-05-02T10:32:27.403Z,28
2019-05-02T10:34:16.263Z,28
2019-05-02T10:35:13.887Z,28
2019-05-02T10:36:19.816Z,32
2019-05-02T10:37:16.024Z,32
2019-05-02T10:39:01.838Z,32
2019-05-02T10:40:03.077Z,32
2019-05-02T10:41:04.808Z,32
2019-05-02T10:42:05.203Z,32
2019-05-02T10:43:51.956Z,32
2019-05-02T10:44:52.152Z,32
2019-05-02T10:45:56.321Z,32
2019-05-02T10:46:54.349Z,32
2019-05-02T10:48:39.264Z,32
2019-05-02T10:49:39.836Z,36
2019-05-02T10:50:42.210Z,36
2019-05-02T10:51:49.001Z,32
2019-05-02T10:53:26.936Z,32
2019-05-02T10:54:28.069Z,32
2019-05-02T10:55:29.072Z,32
2019-05-02T10:56:29.643Z,36
2019-05-02T10:58:14.565Z,36
2019-05-02T10:59:15.135Z,36
2019-05-02T11:00:15.707Z,36
2019-05-02T11:01:16.329Z,36
2019-05-02T11:03:02.637Z,32
2019-05-02T11:04:02.815Z,36
2019-05-02T11:05:03.436Z,36
2019-05-02T11:06:07.584Z,36
2019-05-02T11:07:52.142Z,36
2019-05-02T11:08:52.436Z,36
2019-05-02T11:09:52.595Z,36
2019-05-02T11:10:53.175Z,36
2019-05-02T11:12:44.396Z,36
2019-05-02T11:13:38.856Z,36
2019-05-02T11:14:39.477Z,36
2019-05-02T11:15:41.848Z,36
2019-05-02T11:17:25.963Z,36
2019-05-02T11:18:39.581Z,36
2019-05-02T11:19:28.098Z,40
2019-05-02T11:20:28.719Z,40
2019-05-02T11:22:13.638Z,36
2019-05-02T11:23:14.208Z,36
2019-05-02T11:24:14.780Z,36
2019-05-02T11:25:15.355Z,36
2019-05-02T11:27:02.091Z,40
2019-05-02T11:28:05.507Z,40
2019-05-02T11:29:03.106Z,40
2019-05-02T11:30:03.803Z,40
2019-05-02T11:31:48.866Z,36
2019-05-02T11:32:49.439Z,36
2019-05-02T11:33:50.060Z,36
2019-05-02T11:34:52.433Z,40
2019-05-02T11:36:36.693Z,40
2019-05-02T11:37:37.365Z,40
2019-05-02T11:38:46.429Z,40
2019-05-02T11:39:46.521Z,40
2019-05-02T11:41:25.513Z,40
2019-05-02T11:42:27.334Z,40
2019-05-02T11:43:27.648Z,40
2019-05-02T11:44:28.219Z,40
2019-05-02T11:46:13.140Z,40
2019-05-02T11:47:17.183Z,40
2019-05-02T11:48:15.275Z,40
2019-05-02T11:49:15.847Z,40
2019-05-02T11:51:02.625Z,40
2019-05-02T11:52:04.448Z,40
2019-05-02T11:53:03.023Z,44
2019-05-02T11:54:05.214Z,44
2019-05-02T11:55:49.518Z,44
2019-05-02T11:56:51.333Z,40
2019-05-02T11:57:52.377Z,40
2019-05-02T11:58:53.040Z,40
2019-05-02T12:00:39.736Z,40
2019-05-02T12:01:39.925Z,40
2019-05-02T12:02:41.618Z,44
2019-05-02T12:03:42.341Z,44
2019-05-02T12:05:31.735Z,44
2019-05-02T12:06:28.867Z,44
2019-05-02T12:07:29.456Z,44
2019-05-02T12:08:31.809Z,40
2019-05-02T12:10:15.868Z,40
2019-05-02T12:11:17.778Z,40
2019-05-02T12:12:18.009Z,44
2019-05-02T12:13:18.631Z,44
2019-05-02T12:15:03.541Z,44
2019-05-02T12:16:04.110Z,44
2019-05-02T12:17:04.686Z,44
2019-05-02T12:18:05.312Z,44
2019-05-02T12:19:52.236Z,44
2019-05-02T12:20:52.196Z,44
2019-05-02T12:21:52.938Z,48
2019-05-02T12:22:53.580Z,44
2019-05-02T12:24:40.779Z,44
2019-05-02T12:25:42.152Z,44
2019-05-02T12:26:41.998Z,44
2019-05-02T12:27:42.675Z,44
2019-05-02T12:29:27.597Z,44
2019-05-02T12:30:28.978Z,44
2019-05-02T12:31:29.611Z,48
2019-05-02T12:32:30.192Z,48
2019-05-02T12:34:15.055Z,48
2019-05-02T12:35:15.626Z,48
2019-05-02T12:36:16.199Z,48
2019-05-02T12:37:16.769Z,44
2019-05-02T12:39:02.437Z,44
2019-05-02T12:40:03.157Z,44
2019-05-02T12:41:03.729Z,44
2019-05-02T12:42:04.489Z,48
2019-05-02T12:43:49.633Z,48
2019-05-02T12:44:50.206Z,48
2019-05-02T12:45:52.237Z,48
2019-05-02T12:46:52.398Z,48
2019-05-02T12:48:37.369Z,48
2019-05-02T12:49:37.943Z,48
2019-05-02T12:50:38.565Z,48
2019-05-02T12:51:39.136Z,48
2019-05-02T12:53:24.058Z,48
2019-05-02T12:54:24.634Z,48
2019-05-02T12:55:25.247Z,48
2019-05-02T12:56:25.817Z,48
2019-05-02T12:58:12.554Z,48
2019-05-02T12:59:11.956Z,48
2019-05-02T13:00:12.915Z,48
2019-05-02T13:01:13.501Z,48
2019-05-02T13:02:58.422Z,48
2019-05-02T13:03:59.041Z,48
2019-05-02T13:04:59.612Z,48
2019-05-02T13:06:00.184Z,48
2019-05-02T13:07:50.689Z,52
2019-05-02T13:08:46.672Z,52
2019-05-02T13:09:47.243Z,52
2019-05-02T13:10:47.815Z,48
2019-05-02T13:12:32.785Z,52
2019-05-02T13:13:33.358Z,52
2019-05-02T13:14:33.980Z,52
2019-05-02T13:15:34.550Z,52
2019-05-02T13:17:19.522Z,48
2019-05-02T13:18:23.352Z,48
2019-05-02T13:19:23.704Z,48
2019-05-02T13:20:24.905Z,48
2019-05-02T13:22:09.139Z,48
2019-05-02T13:23:09.710Z,48
2019-05-02T13:24:14.868Z,48
2019-05-02T13:25:12.915Z,52
2019-05-02T13:26:59.523Z,52
2019-05-02T13:27:59.338Z,52
2019-05-02T13:28:59.898Z,52
2019-05-02T13:30:00.471Z,52
2019-05-02T13:31:45.346Z,52
2019-05-02T13:32:47.978Z,52
2019-05-02T13:33:47.528Z,52
2019-05-02T13:34:48.711Z,52
2019-05-02T13:36:34.064Z,52
2019-05-02T13:37:34.637Z,52
2019-05-02T13:38:35.209Z,52
2019-05-02T13:39:35.784Z,52
2019-05-02T13:41:22.507Z,56
2019-05-02T13:42:22.319Z,52
2019-05-02T13:43:22.937Z,52
2019-05-02T13:44:23.514Z,52
2019-05-02T13:46:08.483Z,52
2019-05-02T13:47:09.051Z,52
2019-05-02T13:48:09.623Z,52
2019-05-02T13:49:10.246Z,56
2019-05-02T13:50:55.118Z,56
2019-05-02T13:51:55.688Z,56
2019-05-02T13:52:58.063Z,52
2019-05-02T13:53:57.879Z,52
2019-05-02T13:56:58.292Z,56
2019-05-02T13:58:12.577Z,56
2019-05-02T13:59:13.248Z,56
2019-05-02T14:00:13.822Z,56
2019-05-02T14:01:14.390Z,56
2019-05-02T14:03:03.316Z,52
2019-05-02T14:04:10.084Z,52
2019-05-02T14:05:05.502Z,56
2019-05-02T14:06:06.072Z,56
2019-05-02T14:07:54.050Z,56
2019-05-02T14:08:53.402Z,56
2019-05-02T14:09:58.107Z,56
2019-05-02T14:10:55.583Z,56
2019-05-02T14:12:42.191Z,56
2019-05-02T14:13:42.514Z,56
2019-05-02T14:14:43.102Z,56
2019-05-02T14:15:43.673Z,56
2019-05-02T14:17:28.595Z,56
2019-05-02T14:18:31.073Z,60
2019-05-02T14:19:31.947Z,56
2019-05-02T14:20:33.136Z,60
2019-05-02T14:22:18.106Z,56
2019-05-02T14:23:18.676Z,56
2019-05-02T14:25:38.593Z,56
2019-05-02T14:26:39.164Z,60
2019-05-02T14:32:59.410Z,60
2019-05-02T14:40:20.142Z,60
2019-05-02T14:41:21.791Z,60
2019-05-02T14:42:25.996Z,60
2019-05-02T14:44:08.427Z,60
2019-05-02T14:45:24.209Z,60
2019-05-02T14:46:12.446Z,60
2019-05-02T14:47:18.232Z,60
2019-05-02T14:48:57.330Z,60
2019-05-02T14:50:02.068Z,60
2019-05-02T14:51:01.730Z,60
2019-05-02T14:52:02.863Z,60
2019-05-02T14:53:47.241Z,60
2019-05-02T14:54:48.192Z,60
2019-05-02T14:55:48.862Z,60
2019-05-02T14:56:49.490Z,60
2019-05-02T14:58:37.696Z,60
2019-05-02T14:59:36.203Z,60
2019-05-02T15:00:39.355Z,60
2019-05-02T15:01:38.352Z,60
2019-05-02T15:03:27.139Z,64
2019-05-02T15:04:25.012Z,64
2019-05-02T15:05:29.507Z,64
2019-05-02T15:06:27.159Z,64
2019-05-02T15:08:12.305Z,60
2019-05-02T15:09:16.651Z,64
2019-05-02T15:10:14.495Z,60
2019-05-02T15:11:15.224Z,60
2019-05-02T15:13:01.876Z,60
2019-05-02T15:14:03.094Z,60
2019-05-02T15:15:03.507Z,64
2019-05-02T15:16:04.083Z,60
2019-05-02T15:17:49.175Z,64
2019-05-02T15:18:53.197Z,64
2019-05-02T15:19:52.636Z,64
2019-05-02T15:20:52.942Z,68
2019-05-02T15:22:38.032Z,68
2019-05-02T15:23:38.611Z,68
2019-05-02T15:24:39.194Z,68
2019-05-02T15:25:39.769Z,68
2019-05-02T15:27:24.860Z,68
2019-05-02T15:28:25.644Z,72
2019-05-02T15:29:27.542Z,72
2019-05-02T15:30:28.091Z,72
2019-05-02T15:32:13.232Z,72
2019-05-02T15:33:17.128Z,72
2019-05-02T15:34:15.383Z,76
2019-05-02T15:35:17.573Z,72
2019-05-02T15:37:02.795Z,76
2019-05-02T15:38:06.666Z,76
2019-05-02T15:41:52.678Z,80
2019-05-02T15:42:56.713Z,84
2019-05-02T15:43:55.245Z,84
2019-05-02T15:44:57.235Z,88
2019-05-02T15:46:42.508Z,88
2019-05-02T15:47:45.446Z,88
2019-05-02T15:48:44.720Z,88
2019-05-02T15:49:45.299Z,84
2019-05-02T15:51:30.388Z,88
2019-05-02T15:52:32.638Z,92
2019-05-02T15:53:32.632Z,92
2019-05-02T15:54:33.151Z,92
2019-05-02T15:56:19.974Z,96
2019-05-02T15:57:24.201Z,100
2019-05-02T15:58:23.787Z,100
2019-05-02T15:59:22.297Z,100
2019-05-02T16:01:07.365Z,100
2019-05-02T16:02:07.945Z,100
2019-05-02T16:03:08.572Z,104
2019-05-02T16:04:09.151Z,104
2019-05-02T16:05:54.296Z,108
2019-05-02T16:06:54.873Z,108
2019-05-02T16:08:05.426Z,108
2019-05-02T16:08:57.082Z,112
2019-05-02T16:10:42.842Z,112
2019-05-02T16:11:43.578Z,112
2019-05-02T16:12:44.107Z,116
2019-05-02T16:13:47.033Z,116
2019-05-02T16:15:32.536Z,120
2019-05-02T16:16:36.672Z,120
2019-05-02T16:17:34.001Z,124
2019-05-02T16:18:36.046Z,124
2019-05-02T16:20:20.664Z,124
2019-05-02T16:21:27.041Z,124
2019-05-02T16:22:22.873Z,124
2019-05-02T16:23:29.471Z,124
2019-05-02T16:25:08.575Z,132
2019-05-02T16:26:09.156Z,132
2019-05-02T16:27:11.576Z,132
2019-05-02T16:28:12.594Z,136
2019-05-02T16:29:58.230Z,140
2019-05-02T16:30:58.214Z,140
2019-05-02T16:31:59.676Z,140
2019-05-02T16:33:02.457Z,144
2019-05-02T16:34:46.499Z,144
2019-05-02T16:35:52.305Z,144
2019-05-02T16:36:48.652Z,144
2019-05-02T16:37:52.370Z,148
2019-05-02T16:39:35.265Z,148
2019-05-02T16:40:35.844Z,144
2019-05-02T16:41:36.473Z,152
2019-05-02T16:42:37.102Z,148
2019-05-02T16:44:22.376Z,156
2019-05-02T16:45:22.920Z,156
2019-05-02T16:46:23.496Z,160
2019-05-02T16:47:24.083Z,156
2019-05-02T16:49:13.444Z,156
2019-05-02T16:50:12.200Z,160
2019-05-02T16:51:29.995Z,160
2019-05-02T16:52:15.897Z,164
2019-05-02T16:54:01.591Z,168
2019-05-02T16:55:02.725Z,168
2019-05-02T16:56:03.656Z,172
2019-05-02T16:57:03.832Z,172
2019-05-02T16:58:48.923Z,172
2019-05-02T16:59:53.975Z,176
2019-05-02T17:00:52.784Z,176
2019-05-02T17:01:54.535Z,176
2019-05-02T17:03:38.830Z,180
2019-05-02T17:04:39.408Z,180
2019-05-02T17:05:44.216Z,184
2019-05-02T17:06:42.638Z,184
2019-05-02T17:08:27.693Z,172
2019-05-02T17:09:28.703Z,172
2019-05-02T17:10:29.844Z,176
2019-05-02T17:11:34.494Z,172
2019-05-02T17:13:16.508Z,176
2019-05-02T17:14:17.084Z,172
2019-05-02T17:15:17.662Z,172
2019-05-02T17:16:18.239Z,172
2019-05-02T17:18:09.783Z,176
2019-05-02T17:19:04.906Z,156
2019-05-02T17:20:07.301Z,180
2019-05-02T17:21:07.068Z,184
2019-05-02T17:22:57.144Z,184
2019-05-02T17:23:53.866Z,184
2019-05-02T17:24:57.119Z,188
2019-05-02T17:25:56.020Z,184
2019-05-02T17:27:42.314Z,188
2019-05-02T17:28:46.954Z,188
2019-05-02T17:29:43.393Z,192
2019-05-02T17:30:44.023Z,192
2019-05-02T17:32:34.081Z,192
2019-05-02T17:33:32.399Z,196
2019-05-02T17:34:34.566Z,196
2019-05-02T17:35:34.039Z,192
2019-05-02T17:37:19.125Z,196
2019-05-02T17:38:27.386Z,200
2019-05-02T17:39:22.299Z,200
2019-05-02T17:40:26.050Z,200
2019-05-02T17:42:08.935Z,200
2019-05-02T17:43:09.514Z,200
2019-05-02T17:44:12.947Z,200
2019-05-02T17:45:11.765Z,204
2019-05-02T17:46:58.194Z,204
2019-05-02T17:47:58.430Z,196
2019-05-02T17:48:59.008Z,200
2019-05-02T17:49:59.588Z,188
2019-05-02T17:51:44.739Z,192
2019-05-02T17:52:45.313Z,192
2019-05-02T17:53:49.763Z,188
2019-05-02T17:54:47.513Z,188
2019-05-02T17:56:32.705Z,196
2019-05-02T17:57:34.764Z,196
2019-05-02T17:58:34.807Z,196
2019-05-02T17:59:37.560Z,200
2019-05-02T18:01:21.818Z,192
2019-05-02T18:02:22.406Z,176
2019-05-02T18:03:24.285Z,176
2019-05-02T18:04:24.559Z,180
2019-05-02T18:06:13.287Z,188
2019-05-02T18:07:11.723Z,184
2019-05-02T18:08:14.677Z,176
2019-05-02T18:09:15.555Z,164
2019-05-02T18:11:00.072Z,144
2019-05-02T18:12:01.486Z,108
2019-05-02T18:13:02.616Z,72
2019-05-02T18:14:05.644Z,64
2019-05-02T18:15:48.985Z,56
2019-05-02T18:16:51.899Z,76
2019-05-02T18:17:52.190Z,104
2019-05-02T18:18:52.179Z,124
2019-05-02T18:20:41.965Z,156
2019-05-02T18:21:38.852Z,152
2019-05-02T18:22:39.920Z,124
2019-05-02T18:23:42.673Z,148
2019-05-02T18:25:27.089Z,148
2019-05-02T18:26:27.720Z,152
2019-05-02T18:27:28.298Z,148
2019-05-02T18:28:28.875Z,148
2019-05-02T18:30:17.241Z,144
2019-05-02T18:31:15.592Z,144
2019-05-02T18:32:17.625Z,136
2019-05-02T18:33:17.794Z,136
2019-05-02T18:35:06.190Z,132
2019-05-02T18:36:04.408Z,132
2019-05-02T18:37:06.276Z,124
2019-05-02T18:38:06.558Z,120
2019-05-02T18:39:55.766Z,120
2019-05-02T18:40:55.352Z,120
2019-05-02T18:41:55.135Z,112
2019-05-02T18:42:56.471Z,108
2019-05-02T18:44:42.070Z,104
2019-05-02T18:45:42.706Z,100